sensor_id;sensor_type;location;lat;lon;timestamp;temperature;humidity
70762;DHT22;58360;0.000;0.000;2023-06-04T06:58:07;20.00;59.90
70762;DHT22;58360;0.000;0.000;2023-06-04T07:00:32;20.80;58.60
70762;DHT22;58360;0.000;0.000;2023-06-04T07:02:58;21.50;54.90
70762;DHT22;58360;0.000;0.000;2023-06-04T07:05:24;21.60;53.90
70762;DHT22;58360;0.000;0.000;2023-06-04T07:07:49;21.60;54.30
70762;DHT22;58360;0.000;0.000;2023-06-04T07:10:15;22.20;53.90
70762;DHT22;58360;0.000;0.000;2023-06-04T07:12:41;22.40;50.50
70762;DHT22;58360;0.000;0.000;2023-06-04T07:15:07;22.90;51.10
70762;DHT22;58360;0.000;0.000;2023-06-04T07:17:33;23.50;48.60
70762;DHT22;58360;0.000;0.000;2023-06-04T07:19:59;23.60;49.60
70762;DHT22;58360;0.000;0.000;2023-06-04T07:22:26;23.50;48.20
70762;DHT22;58360;0.000;0.000;2023-06-04T07:24:51;23.80;45.50
70762;DHT22;58360;0.000;0.000;2023-06-04T07:27:17;24.40;44.90
70762;DHT22;58360;0.000;0.000;2023-06-04T07:29:44;24.90;45.10
70762;DHT22;58360;0.000;0.000;2023-06-04T07:32:11;25.60;43.00
70762;DHT22;58360;0.000;0.000;2023-06-04T07:34:38;26.20;42.40
70762;DHT22;58360;0.000;0.000;2023-06-04T07:37:04;26.50;39.80
70762;DHT22;58360;0.000;0.000;2023-06-04T07:39:30;26.80;41.00
70762;DHT22;58360;0.000;0.000;2023-06-04T07:41:56;26.20;42.60
70762;DHT22;58360;0.000;0.000;2023-06-04T07:44:22;26.10;41.80
70762;DHT22;58360;0.000;0.000;2023-06-04T07:46:47;27.00;40.30
70762;DHT22;58360;0.000;0.000;2023-06-04T07:49:14;26.40;40.00
70762;DHT22;58360;0.000;0.000;2023-06-04T07:51:39;26.40;41.50
70762;DHT22;58360;0.000;0.000;2023-06-04T07:54:05;27.00;40.10
70762;DHT22;58360;0.000;0.000;2023-06-04T07:56:31;27.10;40.80
70762;DHT22;58360;0.000;0.000;2023-06-04T07:58:57;27.70;38.80
70762;DHT22;58360;0.000;0.000;2023-06-04T08:01:22;28.80;37.70
70762;DHT22;58360;0.000;0.000;2023-06-04T08:03:49;29.10;36.40
70762;DHT22;58360;0.000;0.000;2023-06-04T08:06:15;28.60;37.20
70762;DHT22;58360;0.000;0.000;2023-06-04T08:08:45;28.30;37.50
70762;DHT22;58360;0.000;0.000;2023-06-04T08:11:14;28.70;35.20
70762;DHT22;58360;0.000;0.000;2023-06-04T08:13:40;28.20;37.10
70762;DHT22;58360;0.000;0.000;2023-06-04T08:16:07;28.10;37.40
70762;DHT22;58360;0.000;0.000;2023-06-04T08:18:33;28.30;37.30
70762;DHT22;58360;0.000;0.000;2023-06-04T08:20:58;28.50;37.00
70762;DHT22;58360;0.000;0.000;2023-06-04T08:23:24;28.80;35.70
70762;DHT22;58360;0.000;0.000;2023-06-04T08:25:50;28.70;36.30
70762;DHT22;58360;0.000;0.000;2023-06-04T08:28:15;28.10;37.50
70762;DHT22;58360;0.000;0.000;2023-06-04T08:30:44;28.10;36.80
70762;DHT22;58360;0.000;0.000;2023-06-04T08:33:11;28.60;35.20
70762;DHT22;58360;0.000;0.000;2023-06-04T08:35:37;29.20;36.30
70762;DHT22;58360;0.000;0.000;2023-06-04T08:38:02;30.40;33.20
70762;DHT22;58360;0.000;0.000;2023-06-04T08:40:28;30.30;33.00
70762;DHT22;58360;0.000;0.000;2023-06-04T08:42:56;30.20;33.20
70762;DHT22;58360;0.000;0.000;2023-06-04T08:45:24;30.80;32.30
70762;DHT22;58360;0.000;0.000;2023-06-04T08:47:51;30.00;33.70
70762;DHT22;58360;0.000;0.000;2023-06-04T08:50:18;30.00;34.10
70762;DHT22;58360;0.000;0.000;2023-06-04T08:52:44;30.00;35.10
70762;DHT22;58360;0.000;0.000;2023-06-04T08:55:13;29.40;35.70
70762;DHT22;58360;0.000;0.000;2023-06-04T08:57:40;29.80;33.90
70762;DHT22;58360;0.000;0.000;2023-06-04T09:00:07;30.60;32.30
70762;DHT22;58360;0.000;0.000;2023-06-04T09:02:37;30.20;34.90
70762;DHT22;58360;0.000;0.000;2023-06-04T09:05:04;29.80;34.10
70762;DHT22;58360;0.000;0.000;2023-06-04T09:07:35;30.20;33.70
70762;DHT22;58360;0.000;0.000;2023-06-04T09:10:02;30.70;32.80
70762;DHT22;58360;0.000;0.000;2023-06-04T09:12:30;31.20;32.20
70762;DHT22;58360;0.000;0.000;2023-06-04T09:14:57;31.10;32.70
70762;DHT22;58360;0.000;0.000;2023-06-04T09:17:23;30.90;32.10
70762;DHT22;58360;0.000;0.000;2023-06-04T09:19:50;31.10;32.50
70762;DHT22;58360;0.000;0.000;2023-06-04T09:22:15;31.80;31.80
70762;DHT22;58360;0.000;0.000;2023-06-04T09:24:43;32.60;29.40
70762;DHT22;58360;0.000;0.000;2023-06-04T09:27:16;32.20;31.60
70762;DHT22;58360;0.000;0.000;2023-06-04T09:29:52;32.50;30.40
70762;DHT22;58360;0.000;0.000;2023-06-04T09:32:36;33.10;29.10
70762;DHT22;58360;0.000;0.000;2023-06-04T09:35:15;32.70;32.10
70762;DHT22;58360;0.000;0.000;2023-06-04T09:37:42;32.60;30.50
70762;DHT22;58360;0.000;0.000;2023-06-04T09:40:08;32.30;30.30
70762;DHT22;58360;0.000;0.000;2023-06-04T09:42:48;31.90;30.10
70762;DHT22;58360;0.000;0.000;2023-06-04T09:45:35;32.80;30.00
70762;DHT22;58360;0.000;0.000;2023-06-04T09:48:02;32.60;29.60
70762;DHT22;58360;0.000;0.000;2023-06-04T09:50:32;32.30;30.10
70762;DHT22;58360;0.000;0.000;2023-06-04T09:53:18;32.30;30.10
70762;DHT22;58360;0.000;0.000;2023-06-04T09:56:00;32.40;30.10
70762;DHT22;58360;0.000;0.000;2023-06-04T09:58:27;31.90;31.80
70762;DHT22;58360;0.000;0.000;2023-06-04T10:00:54;32.20;32.30
70762;DHT22;58360;0.000;0.000;2023-06-04T10:03:24;32.40;31.90
70762;DHT22;58360;0.000;0.000;2023-06-04T10:05:52;31.50;31.10
70762;DHT22;58360;0.000;0.000;2023-06-04T10:08:21;31.70;31.80
70762;DHT22;58360;0.000;0.000;2023-06-04T10:10:49;31.60;30.60
70762;DHT22;58360;0.000;0.000;2023-06-04T10:13:18;31.60;31.20
70762;DHT22;58360;0.000;0.000;2023-06-04T10:15:45;31.40;32.70
70762;DHT22;58360;0.000;0.000;2023-06-04T10:18:11;32.00;32.10
70762;DHT22;58360;0.000;0.000;2023-06-04T10:20:39;32.40;33.00
70762;DHT22;58360;0.000;0.000;2023-06-04T10:23:06;32.60;30.30
70762;DHT22;58360;0.000;0.000;2023-06-04T10:25:35;32.50;32.00
70762;DHT22;58360;0.000;0.000;2023-06-04T10:28:02;33.60;29.60
70762;DHT22;58360;0.000;0.000;2023-06-04T10:30:29;33.90;29.70
70762;DHT22;58360;0.000;0.000;2023-06-04T10:32:56;33.90;30.50
70762;DHT22;58360;0.000;0.000;2023-06-04T10:35:33;34.50;29.40
70762;DHT22;58360;0.000;0.000;2023-06-04T10:38:12;33.30;30.00
70762;DHT22;58360;0.000;0.000;2023-06-04T10:40:39;33.00;30.30
70762;DHT22;58360;0.000;0.000;2023-06-04T10:43:07;32.50;29.60
70762;DHT22;58360;0.000;0.000;2023-06-04T10:45:33;32.90;32.00
70762;DHT22;58360;0.000;0.000;2023-06-04T10:48:02;33.40;31.80
70762;DHT22;58360;0.000;0.000;2023-06-04T10:50:29;34.30;29.80
70762;DHT22;58360;0.000;0.000;2023-06-04T10:52:55;34.00;31.00
70762;DHT22;58360;0.000;0.000;2023-06-04T10:55:23;34.50;28.90
70762;DHT22;58360;0.000;0.000;2023-06-04T10:57:59;33.60;30.00
70762;DHT22;58360;0.000;0.000;2023-06-04T11:00:36;33.00;30.30
70762;DHT22;58360;0.000;0.000;2023-06-04T11:03:02;33.80;31.10
70762;DHT22;58360;0.000;0.000;2023-06-04T11:05:43;34.50;29.10
70762;DHT22;58360;0.000;0.000;2023-06-04T11:08:10;34.40;28.00
70762;DHT22;58360;0.000;0.000;2023-06-04T11:10:46;33.90;28.20
70762;DHT22;58360;0.000;0.000;2023-06-04T11:13:12;34.40;29.50
70762;DHT22;58360;0.000;0.000;2023-06-04T11:18:04;35.20;29.40
70762;DHT22;58360;0.000;0.000;2023-06-04T11:20:30;34.70;30.30
70762;DHT22;58360;0.000;0.000;2023-06-04T11:22:57;34.60;29.00
70762;DHT22;58360;0.000;0.000;2023-06-04T11:25:24;34.40;29.00
70762;DHT22;58360;0.000;0.000;2023-06-04T11:27:52;33.70;31.80
70762;DHT22;58360;0.000;0.000;2023-06-04T11:30:18;33.30;30.60
70762;DHT22;58360;0.000;0.000;2023-06-04T11:32:44;33.80;30.10
70762;DHT22;58360;0.000;0.000;2023-06-04T11:35:10;34.40;29.70
70762;DHT22;58360;0.000;0.000;2023-06-04T11:37:39;34.60;28.60
70762;DHT22;58360;0.000;0.000;2023-06-04T11:40:19;34.60;28.60
70762;DHT22;58360;0.000;0.000;2023-06-04T11:42:46;35.00;28.70
70762;DHT22;58360;0.000;0.000;2023-06-04T11:45:13;35.10;27.60
70762;DHT22;58360;0.000;0.000;2023-06-04T11:47:47;34.70;28.10
70762;DHT22;58360;0.000;0.000;2023-06-04T11:50:13;34.30;29.10
70762;DHT22;58360;0.000;0.000;2023-06-04T11:52:39;34.40;29.00
70762;DHT22;58360;0.000;0.000;2023-06-04T11:55:11;33.90;29.80
70762;DHT22;58360;0.000;0.000;2023-06-04T11:57:38;33.50;29.90
70762;DHT22;58360;0.000;0.000;2023-06-04T12:00:05;34.20;29.30
70762;DHT22;58360;0.000;0.000;2023-06-04T12:02:38;33.40;31.20
70762;DHT22;58360;0.000;0.000;2023-06-04T12:05:13;32.70;30.40
70762;DHT22;58360;0.000;0.000;2023-06-04T12:07:40;33.60;29.70
70762;DHT22;58360;0.000;0.000;2023-06-04T12:10:07;33.90;28.80
70762;DHT22;58360;0.000;0.000;2023-06-04T12:12:34;33.30;29.10
70762;DHT22;58360;0.000;0.000;2023-06-04T12:15:00;33.20;29.60
70762;DHT22;58360;0.000;0.000;2023-06-04T12:17:26;33.10;30.20
70762;DHT22;58360;0.000;0.000;2023-06-04T12:19:52;33.30;29.70
70762;DHT22;58360;0.000;0.000;2023-06-04T12:22:18;33.70;29.40
70762;DHT22;58360;0.000;0.000;2023-06-04T12:24:52;33.50;29.80
70762;DHT22;58360;0.000;0.000;2023-06-04T12:27:20;33.50;28.90
70762;DHT22;58360;0.000;0.000;2023-06-04T12:30:15;33.60;29.20
70762;DHT22;58360;0.000;0.000;2023-06-04T12:32:41;33.70;29.20
70762;DHT22;58360;0.000;0.000;2023-06-04T12:35:08;32.30;29.60
70762;DHT22;58360;0.000;0.000;2023-06-04T12:37:33;31.50;31.30
70762;DHT22;58360;0.000;0.000;2023-06-04T12:39:59;32.30;31.20
70762;DHT22;58360;0.000;0.000;2023-06-04T12:42:24;32.80;28.80
70762;DHT22;58360;0.000;0.000;2023-06-04T12:44:50;33.00;29.40
70762;DHT22;58360;0.000;0.000;2023-06-04T12:47:16;32.90;31.70
70762;DHT22;58360;0.000;0.000;2023-06-04T12:49:43;32.80;29.40
70762;DHT22;58360;0.000;0.000;2023-06-04T12:52:09;32.60;29.90
70762;DHT22;58360;0.000;0.000;2023-06-04T12:54:35;32.50;29.00
70762;DHT22;58360;0.000;0.000;2023-06-04T12:57:00;32.80;29.60
70762;DHT22;58360;0.000;0.000;2023-06-04T12:59:27;32.50;28.70
70762;DHT22;58360;0.000;0.000;2023-06-04T13:01:54;32.90;31.80
70762;DHT22;58360;0.000;0.000;2023-06-04T13:04:20;32.90;31.60
70762;DHT22;58360;0.000;0.000;2023-06-04T13:06:46;32.70;29.10
70762;DHT22;58360;0.000;0.000;2023-06-04T13:09:12;33.00;29.00
70762;DHT22;58360;0.000;0.000;2023-06-04T13:11:42;32.90;30.00
70762;DHT22;58360;0.000;0.000;2023-06-04T13:14:09;33.10;29.50
70762;DHT22;58360;0.000;0.000;2023-06-04T13:16:35;32.40;30.10
70762;DHT22;58360;0.000;0.000;2023-06-04T13:19:01;31.60;30.00
70762;DHT22;58360;0.000;0.000;2023-06-04T13:21:27;31.30;29.90
70762;DHT22;58360;0.000;0.000;2023-06-04T13:23:53;31.00;29.90
70762;DHT22;58360;0.000;0.000;2023-06-04T13:26:19;31.20;31.30
70762;DHT22;58360;0.000;0.000;2023-06-04T13:28:45;31.60;30.00
70762;DHT22;58360;0.000;0.000;2023-06-04T13:31:10;32.00;29.40
70762;DHT22;58360;0.000;0.000;2023-06-04T13:33:36;31.90;28.80
70762;DHT22;58360;0.000;0.000;2023-06-04T13:36:03;31.70;29.30
70762;DHT22;58360;0.000;0.000;2023-06-04T13:38:28;31.70;30.10
70762;DHT22;58360;0.000;0.000;2023-06-04T13:40:54;31.50;31.50
70762;DHT22;58360;0.000;0.000;2023-06-04T13:43:20;31.70;32.00
70762;DHT22;58360;0.000;0.000;2023-06-04T13:45:46;31.00;29.90
70762;DHT22;58360;0.000;0.000;2023-06-04T13:48:12;30.50;31.80
70762;DHT22;58360;0.000;0.000;2023-06-04T13:50:38;30.20;31.30
70762;DHT22;58360;0.000;0.000;2023-06-04T13:53:04;30.30;32.40
70762;DHT22;58360;0.000;0.000;2023-06-04T13:55:30;30.70;32.00
70762;DHT22;58360;0.000;0.000;2023-06-04T13:57:55;30.80;31.40
70762;DHT22;58360;0.000;0.000;2023-06-04T14:00:21;30.90;31.50
70762;DHT22;58360;0.000;0.000;2023-06-04T14:02:50;31.00;30.70
70762;DHT22;58360;0.000;0.000;2023-06-04T14:05:16;30.90;30.90
70762;DHT22;58360;0.000;0.000;2023-06-04T14:07:42;30.80;32.30
70762;DHT22;58360;0.000;0.000;2023-06-04T14:10:10;30.60;35.40
70762;DHT22;58360;0.000;0.000;2023-06-04T14:12:37;30.90;31.00
70762;DHT22;58360;0.000;0.000;2023-06-04T14:15:04;30.80;32.20
70762;DHT22;58360;0.000;0.000;2023-06-04T14:17:29;30.70;31.00
70762;DHT22;58360;0.000;0.000;2023-06-04T14:19:55;30.60;31.50
70762;DHT22;58360;0.000;0.000;2023-06-04T14:22:21;30.60;31.30
70762;DHT22;58360;0.000;0.000;2023-06-04T14:24:46;30.90;32.40
70762;DHT22;58360;0.000;0.000;2023-06-04T14:27:12;30.70;31.00
70762;DHT22;58360;0.000;0.000;2023-06-04T14:29:38;30.50;31.60
70762;DHT22;58360;0.000;0.000;2023-06-04T14:32:04;30.40;30.00
70762;DHT22;58360;0.000;0.000;2023-06-04T14:34:30;30.60;30.70
70762;DHT22;58360;0.000;0.000;2023-06-04T14:36:58;30.50;31.10
70762;DHT22;58360;0.000;0.000;2023-06-04T14:39:26;30.30;30.10
70762;DHT22;58360;0.000;0.000;2023-06-04T14:41:51;30.30;31.00
70762;DHT22;58360;0.000;0.000;2023-06-04T14:44:18;30.40;32.80
70762;DHT22;58360;0.000;0.000;2023-06-04T14:46:44;30.50;32.00
70762;DHT22;58360;0.000;0.000;2023-06-04T14:49:09;30.20;30.90
70762;DHT22;58360;0.000;0.000;2023-06-04T14:51:35;30.00;31.40
70762;DHT22;58360;0.000;0.000;2023-06-04T14:54:02;29.90;32.80
70762;DHT22;58360;0.000;0.000;2023-06-04T14:56:28;29.50;31.20
70762;DHT22;58360;0.000;0.000;2023-06-04T14:58:56;29.70;32.10
70762;DHT22;58360;0.000;0.000;2023-06-04T15:01:21;29.30;31.60
70762;DHT22;58360;0.000;0.000;2023-06-04T15:03:49;29.40;32.10
70762;DHT22;58360;0.000;0.000;2023-06-04T15:06:16;29.30;31.90
70762;DHT22;58360;0.000;0.000;2023-06-04T15:08:41;29.20;31.80
70762;DHT22;58360;0.000;0.000;2023-06-04T15:11:10;29.20;31.50
70762;DHT22;58360;0.000;0.000;2023-06-04T15:13:35;29.10;33.60
70762;DHT22;58360;0.000;0.000;2023-06-04T15:16:02;29.20;33.70
70762;DHT22;58360;0.000;0.000;2023-06-04T15:18:27;29.20;34.20
70762;DHT22;58360;0.000;0.000;2023-06-04T15:20:53;29.40;32.40
70762;DHT22;58360;0.000;0.000;2023-06-04T15:23:18;29.10;32.80
70762;DHT22;58360;0.000;0.000;2023-06-04T15:25:44;29.00;33.10
70762;DHT22;58360;0.000;0.000;2023-06-04T15:28:10;28.60;35.00
70762;DHT22;58360;0.000;0.000;2023-06-04T15:30:36;28.80;33.20
70762;DHT22;58360;0.000;0.000;2023-06-04T15:33:01;28.30;34.30
70762;DHT22;58360;0.000;0.000;2023-06-04T15:35:27;28.20;34.70
70762;DHT22;58360;0.000;0.000;2023-06-04T15:37:53;28.10;34.60
70762;DHT22;58360;0.000;0.000;2023-06-04T15:40:19;28.10;35.50
70762;DHT22;58360;0.000;0.000;2023-06-04T15:42:45;28.10;35.30
70762;DHT22;58360;0.000;0.000;2023-06-04T15:45:11;28.10;33.90
70762;DHT22;58360;0.000;0.000;2023-06-04T15:47:36;27.90;35.10
70762;DHT22;58360;0.000;0.000;2023-06-04T15:50:02;28.00;34.60
70762;DHT22;58360;0.000;0.000;2023-06-04T15:52:28;27.90;35.30
70762;DHT22;58360;0.000;0.000;2023-06-04T15:54:54;27.80;35.60
70762;DHT22;58360;0.000;0.000;2023-06-04T15:57:19;27.80;36.20
70762;DHT22;58360;0.000;0.000;2023-06-04T15:59:45;27.50;35.50
70762;DHT22;58360;0.000;0.000;2023-06-04T16:02:11;27.10;36.30
70762;DHT22;58360;0.000;0.000;2023-06-04T16:04:36;26.90;36.70
70762;DHT22;58360;0.000;0.000;2023-06-04T16:07:03;26.80;36.50
70762;DHT22;58360;0.000;0.000;2023-06-04T16:09:29;26.60;36.80
70762;DHT22;58360;0.000;0.000;2023-06-04T16:11:55;26.50;36.90
70762;DHT22;58360;0.000;0.000;2023-06-04T16:14:21;26.20;37.70
70762;DHT22;58360;0.000;0.000;2023-06-04T16:16:47;26.10;38.00
70762;DHT22;58360;0.000;0.000;2023-06-04T16:19:12;25.90;37.70
70762;DHT22;58360;0.000;0.000;2023-06-04T16:21:38;25.80;38.20
70762;DHT22;58360;0.000;0.000;2023-06-04T16:24:04;25.90;38.30
70762;DHT22;58360;0.000;0.000;2023-06-04T16:26:30;26.10;37.10
70762;DHT22;58360;0.000;0.000;2023-06-04T16:28:55;26.30;36.80
70762;DHT22;58360;0.000;0.000;2023-06-04T16:31:21;26.20;36.70
70762;DHT22;58360;0.000;0.000;2023-06-04T16:33:47;25.90;37.80
70762;DHT22;58360;0.000;0.000;2023-06-04T16:36:12;25.70;38.20
70762;DHT22;58360;0.000;0.000;2023-06-04T16:38:38;25.60;38.30
70762;DHT22;58360;0.000;0.000;2023-06-04T16:41:04;25.60;38.50
70762;DHT22;58360;0.000;0.000;2023-06-04T16:43:30;25.60;37.40
70762;DHT22;58360;0.000;0.000;2023-06-04T16:45:55;25.60;38.20
70762;DHT22;58360;0.000;0.000;2023-06-04T16:48:21;25.60;38.70
70762;DHT22;58360;0.000;0.000;2023-06-04T16:50:47;25.40;38.40
70762;DHT22;58360;0.000;0.000;2023-06-04T16:53:13;25.40;38.60
70762;DHT22;58360;0.000;0.000;2023-06-04T16:55:39;25.40;38.70
70762;DHT22;58360;0.000;0.000;2023-06-04T16:58:04;25.40;38.20
70762;DHT22;58360;0.000;0.000;2023-06-04T17:00:30;25.30;38.20
70762;DHT22;58360;0.000;0.000;2023-06-04T17:02:57;25.20;38.70
70762;DHT22;58360;0.000;0.000;2023-06-04T17:05:24;25.20;38.30
70762;DHT22;58360;0.000;0.000;2023-06-04T17:07:50;25.30;38.20
70762;DHT22;58360;0.000;0.000;2023-06-04T17:10:16;25.30;38.90
70762;DHT22;58360;0.000;0.000;2023-06-04T17:12:42;25.30;38.70
70762;DHT22;58360;0.000;0.000;2023-06-04T17:15:08;25.40;38.70
70762;DHT22;58360;0.000;0.000;2023-06-04T17:17:34;25.40;38.00
70762;DHT22;58360;0.000;0.000;2023-06-04T17:19:59;25.60;37.70
70762;DHT22;58360;0.000;0.000;2023-06-04T17:22:25;25.50;38.50
70762;DHT22;58360;0.000;0.000;2023-06-04T17:24:51;25.50;38.60
70762;DHT22;58360;0.000;0.000;2023-06-04T17:27:17;25.30;38.30
70762;DHT22;58360;0.000;0.000;2023-06-04T17:29:44;25.10;39.40
70762;DHT22;58360;0.000;0.000;2023-06-04T17:32:10;25.10;38.20
70762;DHT22;58360;0.000;0.000;2023-06-04T17:34:36;25.10;39.50
70762;DHT22;58360;0.000;0.000;2023-06-04T17:37:02;25.00;40.00
70762;DHT22;58360;0.000;0.000;2023-06-04T17:39:29;24.90;39.40
70762;DHT22;58360;0.000;0.000;2023-06-04T17:41:57;25.10;39.20
70762;DHT22;58360;0.000;0.000;2023-06-04T17:44:23;24.80;38.90
70762;DHT22;58360;0.000;0.000;2023-06-04T17:46:49;24.80;39.80
70762;DHT22;58360;0.000;0.000;2023-06-04T17:49:14;24.70;39.50
70762;DHT22;58360;0.000;0.000;2023-06-04T17:51:40;24.70;40.00
70762;DHT22;58360;0.000;0.000;2023-06-04T17:54:06;24.60;39.90
70762;DHT22;58360;0.000;0.000;2023-06-04T17:56:34;24.50;39.50
70762;DHT22;58360;0.000;0.000;2023-06-04T17:59:02;24.50;40.40
70762;DHT22;58360;0.000;0.000;2023-06-04T18:01:28;24.50;40.40
70762;DHT22;58360;0.000;0.000;2023-06-04T18:03:53;24.60;40.40
70762;DHT22;58360;0.000;0.000;2023-06-04T18:06:19;24.60;40.80
70762;DHT22;58360;0.000;0.000;2023-06-04T18:08:45;24.40;42.60
70762;DHT22;58360;0.000;0.000;2023-06-04T18:11:10;24.20;45.70
70762;DHT22;58360;0.000;0.000;2023-06-04T18:13:36;23.90;47.50
70762;DHT22;58360;0.000;0.000;2023-06-04T18:16:01;23.80;47.30
70762;DHT22;58360;0.000;0.000;2023-06-04T18:18:27;23.50;49.20
70762;DHT22;58360;0.000;0.000;2023-06-04T18:20:53;23.50;49.80
70762;DHT22;58360;0.000;0.000;2023-06-04T18:23:18;23.40;49.50
70762;DHT22;58360;0.000;0.000;2023-06-04T18:25:44;23.20;49.80
70762;DHT22;58360;0.000;0.000;2023-06-04T18:28:10;23.10;50.50
70762;DHT22;58360;0.000;0.000;2023-06-04T18:30:37;23.10;50.60
70762;DHT22;58360;0.000;0.000;2023-06-04T18:33:02;23.00;50.70
70762;DHT22;58360;0.000;0.000;2023-06-04T18:35:28;22.90;51.40
70762;DHT22;58360;0.000;0.000;2023-06-04T18:37:54;22.80;51.40
70762;DHT22;58360;0.000;0.000;2023-06-04T18:40:20;22.70;51.70
70762;DHT22;58360;0.000;0.000;2023-06-04T18:42:46;22.70;51.80
70762;DHT22;58360;0.000;0.000;2023-06-04T18:45:14;22.70;51.70
70762;DHT22;58360;0.000;0.000;2023-06-04T18:47:41;22.60;52.10
70762;DHT22;58360;0.000;0.000;2023-06-04T18:50:08;22.50;52.70
70762;DHT22;58360;0.000;0.000;2023-06-04T18:52:33;22.40;52.90
70762;DHT22;58360;0.000;0.000;2023-06-04T18:55:05;22.30;53.50
70762;DHT22;58360;0.000;0.000;2023-06-04T18:57:31;22.20;53.00
70762;DHT22;58360;0.000;0.000;2023-06-04T18:59:56;22.20;53.20
70762;DHT22;58360;0.000;0.000;2023-06-04T19:02:22;22.20;53.90
70762;DHT22;58360;0.000;0.000;2023-06-04T19:04:47;22.10;54.00
70762;DHT22;58360;0.000;0.000;2023-06-04T19:07:13;22.10;53.80
70762;DHT22;58360;0.000;0.000;2023-06-04T19:09:39;21.90;54.30
70762;DHT22;58360;0.000;0.000;2023-06-04T19:12:05;21.80;54.40
70762;DHT22;58360;0.000;0.000;2023-06-04T19:14:30;21.80;55.10
70762;DHT22;58360;0.000;0.000;2023-06-04T19:16:56;21.80;54.90
70762;DHT22;58360;0.000;0.000;2023-06-04T19:19:22;21.60;55.30
70762;DHT22;58360;0.000;0.000;2023-06-04T19:21:48;21.60;55.50
70762;DHT22;58360;0.000;0.000;2023-06-04T19:24:18;21.60;55.50
70762;DHT22;58360;0.000;0.000;2023-06-04T19:26:46;21.50;55.50
70762;DHT22;58360;0.000;0.000;2023-06-04T19:29:12;21.50;56.40
70762;DHT22;58360;0.000;0.000;2023-06-04T19:31:38;21.50;56.40
70762;DHT22;58360;0.000;0.000;2023-06-04T19:34:04;21.30;56.40
70762;DHT22;58360;0.000;0.000;2023-06-04T19:36:29;21.30;57.00
70762;DHT22;58360;0.000;0.000;2023-06-04T19:38:55;21.30;57.00
70762;DHT22;58360;0.000;0.000;2023-06-04T19:41:23;21.20;57.30
70762;DHT22;58360;0.000;0.000;2023-06-04T19:43:49;21.20;57.30
70762;DHT22;58360;0.000;0.000;2023-06-04T19:46:15;21.20;57.30
70762;DHT22;58360;0.000;0.000;2023-06-04T19:48:41;21.10;57.70
70762;DHT22;58360;0.000;0.000;2023-06-04T19:51:07;21.10;57.80
70762;DHT22;58360;0.000;0.000;2023-06-04T19:53:32;21.00;58.20
70762;DHT22;58360;0.000;0.000;2023-06-04T19:55:58;21.00;58.30
70762;DHT22;58360;0.000;0.000;2023-06-04T19:58:24;20.90;58.60
70762;DHT22;58360;0.000;0.000;2023-06-04T20:00:51;20.90;58.70
70762;DHT22;58360;0.000;0.000;2023-06-04T20:03:16;20.80;59.20
70762;DHT22;58360;0.000;0.000;2023-06-04T20:05:42;20.70;59.60
70762;DHT22;58360;0.000;0.000;2023-06-04T20:08:08;20.70;59.80
70762;DHT22;58360;0.000;0.000;2023-06-04T20:10:33;20.60;60.10
70762;DHT22;58360;0.000;0.000;2023-06-04T20:12:59;20.50;60.60
70762;DHT22;58360;0.000;0.000;2023-06-04T20:18:59;20.40;61.30
70762;DHT22;58360;0.000;0.000;2023-06-04T20:25:23;20.20;62.60
70762;DHT22;58360;0.000;0.000;2023-06-04T20:52:07;19.70;67.60
70762;DHT22;58360;0.000;0.000;2023-06-04T20:54:32;19.80;67.30
70762;DHT22;58360;0.000;0.000;2023-06-04T20:56:58;19.70;67.70
70762;DHT22;58360;0.000;0.000;2023-06-04T21:13:31;19.30;70.50
70762;DHT22;58360;0.000;0.000;2023-06-04T21:47:47;18.60;75.60
70762;DHT22;58360;0.000;0.000;2023-06-04T21:50:13;18.50;75.90
70762;DHT22;58360;0.000;0.000;2023-06-04T21:52:39;18.50;76.50
70762;DHT22;58360;0.000;0.000;2023-06-04T21:55:13;18.40;76.60
70762;DHT22;58360;0.000;0.000;2023-06-04T22:01:07;18.30;77.10
70762;DHT22;58360;0.000;0.000;2023-06-04T22:13:42;18.10;77.70
70762;DHT22;58360;0.000;0.000;2023-06-04T22:19:31;18.00;78.30
